createdAt,value
2022-10-14T00:01:49.564Z,3.5
2022-10-14T00:06:49.252Z,3.9
2022-10-14T00:11:49.305Z,3.6
2022-10-14T00:16:53.106Z,3.6
2022-10-14T00:21:49.118Z,3.8
2022-10-14T00:26:49.813Z,3.6
2022-10-14T00:31:50.086Z,3.3
2022-10-14T00:36:50.927Z,3.4
2022-10-14T00:41:50.490Z,4.3
2022-10-14T00:46:51.435Z,2.7
2022-10-14T00:51:54.625Z,4.1
2022-10-14T00:56:52.102Z,3.5
2022-10-14T01:01:52.442Z,3.6
2022-10-14T01:07:06.959Z,3.6
2022-10-14T01:12:23.439Z,3
2022-10-14T01:16:59.309Z,3.1
2022-10-14T01:21:59.435Z,2.8
2022-10-14T01:27:08.255Z,3.1
2022-10-14T01:32:01.035Z,3.1
2022-10-14T01:36:57.374Z,3.6
2022-10-14T01:41:59.507Z,3.1
2022-10-14T01:46:55.242Z,2.7
2022-10-14T01:51:58.741Z,2.7
2022-10-14T01:56:58.416Z,2.8
2022-10-14T02:01:54.959Z,3.3
2022-10-14T02:07:06.441Z,2.3
2022-10-14T02:12:08.120Z,2.7
2022-10-14T02:17:01.256Z,2.8
2022-10-14T02:22:00.644Z,2.6
2022-10-14T02:27:01.536Z,2.3
2022-10-14T02:31:58.332Z,3
2022-10-14T02:36:57.762Z,2.7
2022-10-14T02:41:56.682Z,2.8
2022-10-14T02:46:56.106Z,2.6
2022-10-14T02:51:57.132Z,2.9
2022-10-14T02:56:56.913Z,2.3
2022-10-14T03:01:56.876Z,2.6
2022-10-14T03:06:58.064Z,3.1
2022-10-14T03:11:58.034Z,2.6
2022-10-14T03:16:57.997Z,2.4
2022-10-14T03:21:58.742Z,2.6
2022-10-14T03:26:59.869Z,2.3
2022-10-14T03:32:00.265Z,2.9
2022-10-14T03:37:00.409Z,2.6
2022-10-14T03:42:01.054Z,2.7
2022-10-14T03:47:00.570Z,2.8
2022-10-14T03:51:59.882Z,2.6
2022-10-14T03:57:00.084Z,2.7
2022-10-14T04:02:01.394Z,2.7
2022-10-14T04:07:02.092Z,2.2
2022-10-14T04:12:03.381Z,2.7
2022-10-14T04:17:03.588Z,2.4
2022-10-14T04:22:02.467Z,2.7
2022-10-14T04:27:02.704Z,2.4
2022-10-14T04:32:03.016Z,2.6
2022-10-14T04:37:02.719Z,2.3
2022-10-14T04:42:03.458Z,2.5
2022-10-14T04:47:04.106Z,2.4
2022-10-14T04:52:03.761Z,2.6
2022-10-14T04:57:03.633Z,2.5
2022-10-14T05:02:03.089Z,2.6
2022-10-14T05:07:03.528Z,2.3
2022-10-14T05:12:03.583Z,2.3
2022-10-14T05:17:03.805Z,2.4
2022-10-14T05:22:04.645Z,2.3
2022-10-14T05:27:05.641Z,2.7
2022-10-14T05:32:05.354Z,2.4
2022-10-14T05:37:05.280Z,2.4
2022-10-14T05:42:05.427Z,2.5
2022-10-14T05:47:05.608Z,3
2022-10-14T05:52:05.561Z,2.6
2022-10-14T05:57:05.317Z,2.5
2022-10-14T06:02:05.573Z,3.1
2022-10-14T06:07:05.661Z,2.6
2022-10-14T06:12:06.476Z,3.3
2022-10-14T06:17:06.202Z,2.3
2022-10-14T06:22:06.210Z,2.5
2022-10-14T06:27:06.071Z,2.8
2022-10-14T06:32:08.069Z,3.4
2022-10-14T06:37:07.090Z,3.4
2022-10-14T06:42:12.902Z,3
2022-10-14T06:47:08.129Z,2.6
2022-10-14T06:52:09.206Z,2.8
2022-10-14T06:57:09.025Z,2.9
2022-10-14T07:02:09.787Z,2.4
2022-10-14T07:07:09.589Z,2.1
2022-10-14T07:12:09.548Z,2.3
2022-10-14T07:17:09.535Z,2.3
2022-10-14T07:22:09.465Z,2.4
2022-10-14T07:27:10.315Z,2.3
2022-10-14T07:32:09.231Z,2.5
2022-10-14T07:37:09.447Z,2.8
2022-10-14T07:42:09.479Z,2.9
2022-10-14T07:47:09.229Z,2.5
2022-10-14T07:52:09.188Z,2.8
2022-10-14T07:57:09.069Z,2.4
2022-10-14T08:02:10.418Z,3.1
2022-10-14T08:07:10.271Z,2.7
2022-10-14T08:12:10.600Z,2.7
2022-10-14T08:17:10.344Z,2.6
2022-10-14T08:22:10.183Z,2.3
2022-10-14T08:27:10.063Z,2.8
2022-10-14T08:32:09.820Z,3.2
2022-10-14T08:37:10.513Z,2.5
2022-10-14T08:42:25.177Z,2.7
2022-10-14T08:47:12.945Z,2.9
2022-10-14T08:52:16.607Z,2.6
2022-10-14T08:57:17.246Z,2.9
2022-10-14T09:02:23.348Z,3.9
2022-10-14T09:07:16.718Z,2.9
2022-10-14T09:12:15.543Z,2.8
2022-10-14T09:17:16.489Z,2.8
2022-10-14T09:22:13.874Z,2.9
2022-10-14T09:27:14.795Z,3.3
2022-10-14T09:32:15.762Z,3
2022-10-14T09:37:24.362Z,2.9
2022-10-14T09:42:18.319Z,2.7
2022-10-14T09:47:13.532Z,3.1
2022-10-14T09:52:21.462Z,3.1
2022-10-14T09:57:18.897Z,3.3
2022-10-14T10:02:21.507Z,2.9
2022-10-14T10:07:27.707Z,2.9
2022-10-14T10:12:22.942Z,3.1
2022-10-14T10:17:17.709Z,11.9
2022-10-14T10:22:22.610Z,16.9
2022-10-14T10:27:20.566Z,10.7
2022-10-14T10:32:23.334Z,7.4
2022-10-14T10:37:25.436Z,5.7
2022-10-14T10:42:23.442Z,5.5
2022-10-14T10:47:30.548Z,4.9
2022-10-14T10:52:25.219Z,4.7
2022-10-14T10:57:38.865Z,4.9
2022-10-14T11:03:35.462Z,4.2
2022-10-14T11:07:27.043Z,6.3
2022-10-14T11:12:24.133Z,30.7
2022-10-14T11:17:27.216Z,23.2
2022-10-14T11:22:33.130Z,16.2
2022-10-14T11:27:24.758Z,10.2
2022-10-14T11:32:26.426Z,6.9
2022-10-14T11:37:27.739Z,5.8
2022-10-14T11:42:25.694Z,5.6
2022-10-14T11:47:23.414Z,5
2022-10-14T11:52:23.635Z,30.1
2022-10-14T11:57:25.400Z,47.3
2022-10-14T12:02:26.789Z,27.6
2022-10-14T12:07:24.068Z,16.5
2022-10-14T12:12:22.212Z,10
2022-10-14T12:17:22.192Z,7.3
2022-10-14T12:22:21.119Z,110.6
2022-10-14T12:27:19.126Z,103.2
2022-10-14T12:32:21.780Z,90.6
2022-10-14T12:37:48.809Z,80.5
2022-10-14T12:42:18.950Z,59.8
2022-10-14T12:47:22.662Z,34.9
2022-10-14T12:52:24.260Z,23.3
2022-10-14T12:57:27.292Z,58.5
2022-10-14T13:02:29.233Z,51.4
2022-10-14T13:07:42.275Z,36.5
2022-10-14T13:12:50.434Z,35.1
2022-10-14T13:17:30.486Z,28.1
2022-10-14T13:22:52.023Z,21.2
2022-10-14T13:27:29.506Z,18.9
2022-10-14T13:32:31.194Z,15.7
2022-10-14T13:37:29.821Z,12.8
2022-10-14T13:42:24.870Z,12
2022-10-14T13:47:22.480Z,11.3
2022-10-14T13:52:25.198Z,11.3
2022-10-14T14:02:24.998Z,8.7
2022-10-14T14:07:58.956Z,7.1
2022-10-14T14:12:21.463Z,6.8
2022-10-14T14:17:23.264Z,6.5
2022-10-14T14:22:23.969Z,6
2022-10-14T14:27:23.885Z,6.4
2022-10-14T14:32:27.718Z,5.5
2022-10-14T14:37:43.807Z,5.6
2022-10-14T14:42:22.716Z,4.9
2022-10-14T14:47:21.938Z,4.4
2022-10-14T14:52:22.555Z,3.8
2022-10-14T14:57:23.727Z,3.7
2022-10-14T15:02:23.402Z,4
2022-10-14T15:07:24.966Z,4
2022-10-14T15:12:24.624Z,3.3
2022-10-14T15:17:25.901Z,3
2022-10-14T15:22:31.194Z,4.5
2022-10-14T15:27:46.926Z,4.2
2022-10-14T15:32:25.812Z,4.4
2022-10-14T15:37:25.975Z,4.1
2022-10-14T15:42:25.542Z,3.9
2022-10-14T15:47:25.617Z,3.6
2022-10-14T15:52:27.051Z,4
2022-10-14T15:57:25.612Z,3.2
2022-10-14T16:02:30.755Z,3.5
2022-10-14T16:07:25.715Z,3.6
2022-10-14T16:12:25.499Z,3.5
2022-10-14T16:17:25.865Z,3.6
2022-10-14T16:22:25.644Z,3.2
2022-10-14T16:27:25.645Z,3.2
2022-10-14T16:32:25.666Z,2.8
2022-10-14T16:37:25.558Z,3.4
2022-10-14T16:42:25.559Z,2.9
2022-10-14T16:47:25.857Z,2.9
2022-10-14T16:52:25.655Z,3
2022-10-14T16:57:27.371Z,3.1
2022-10-14T17:02:25.727Z,3.1
2022-10-14T17:07:25.865Z,3.2
2022-10-14T17:12:26.472Z,3
2022-10-14T17:17:25.603Z,2.8
2022-10-14T17:22:25.767Z,2.7
2022-10-14T17:27:25.786Z,2.6
2022-10-14T17:32:25.796Z,2.8
2022-10-14T17:37:25.826Z,3
2022-10-14T17:42:25.738Z,2.9
2022-10-14T17:47:25.977Z,2.7
2022-10-14T17:52:26.231Z,2.7
2022-10-14T17:57:26.452Z,2.4
2022-10-14T18:02:26.285Z,2.5
2022-10-14T18:07:26.107Z,2.9
2022-10-14T18:12:25.858Z,2.7
2022-10-14T18:17:26.676Z,2.4
2022-10-14T18:22:26.385Z,2.3
2022-10-14T18:27:26.385Z,2.1
2022-10-14T18:32:26.358Z,2.2
2022-10-14T18:37:26.541Z,2.7
2022-10-14T18:42:26.371Z,2.3
2022-10-14T18:47:26.720Z,2
2022-10-14T18:52:26.499Z,2.2
2022-10-14T18:57:26.235Z,2.2
2022-10-14T19:02:27.314Z,2.4
2022-10-14T19:07:27.985Z,2
2022-10-14T19:12:27.804Z,2.5
2022-10-14T19:17:28.782Z,2.2
2022-10-14T19:22:29.755Z,2
2022-10-14T19:27:30.733Z,1.9
2022-10-14T19:32:30.077Z,1.9
2022-10-14T19:37:30.182Z,2.3
2022-10-14T19:42:29.979Z,1.9
2022-10-14T19:47:29.862Z,1.9
2022-10-14T19:52:31.292Z,2.1
2022-10-14T19:57:31.856Z,2.1
2022-10-14T20:02:31.794Z,2.1
2022-10-14T20:07:32.271Z,1.6
2022-10-14T20:12:31.964Z,2.1
2022-10-14T20:17:32.914Z,1.7
2022-10-14T20:22:33.610Z,1.6
2022-10-14T20:27:33.450Z,1.6
2022-10-14T20:32:33.794Z,1.4
2022-10-14T20:37:33.112Z,1.4
2022-10-14T20:42:33.250Z,1.3
2022-10-14T20:47:33.118Z,1.4
2022-10-14T20:52:33.262Z,1.3
2022-10-14T20:57:33.019Z,1.4
2022-10-14T21:02:33.803Z,0.9
2022-10-14T21:07:34.416Z,1.2
2022-10-14T21:12:34.505Z,1.4
2022-10-14T21:17:34.427Z,1.3
2022-10-14T21:22:34.335Z,1.2
2022-10-14T21:27:33.902Z,1.2
2022-10-14T21:32:34.586Z,1.3
2022-10-14T21:37:34.684Z,1.1
2022-10-14T21:42:35.660Z,1
2022-10-14T21:47:36.751Z,1.1
2022-10-14T21:52:38.187Z,1.2
2022-10-14T21:57:38.023Z,1.2
2022-10-14T22:02:38.096Z,1.2
2022-10-14T22:07:39.068Z,1.3
2022-10-14T22:12:38.664Z,1.2
2022-10-14T22:17:39.101Z,1.2
2022-10-14T22:22:39.658Z,1.4
2022-10-14T22:27:39.366Z,1.7
2022-10-14T22:32:39.055Z,1.8
2022-10-14T22:37:39.470Z,1.6
2022-10-14T22:42:42.129Z,2.4
2022-10-14T22:47:39.036Z,2.1
2022-10-14T22:52:39.781Z,2.3
2022-10-14T22:57:40.533Z,2.1
2022-10-14T23:02:41.165Z,2.8
2022-10-14T23:07:41.885Z,2.4
2022-10-14T23:12:41.820Z,2.5
2022-10-14T23:17:41.985Z,2.5
2022-10-14T23:22:41.627Z,3.2
2022-10-14T23:27:41.665Z,2.6
2022-10-14T23:32:41.653Z,3
2022-10-14T23:37:41.760Z,3.6
2022-10-14T23:42:41.764Z,3.1
2022-10-14T23:47:41.741Z,3.7
2022-10-14T23:52:41.745Z,3.7
2022-10-14T23:57:41.747Z,3.2
